createdAt,value
2022-08-08T00:00:55.850Z,4.32
2022-08-08T00:03:32.109Z,3.97
2022-08-08T00:06:03.901Z,4.05
2022-08-08T00:08:51.532Z,3.90
2022-08-08T00:11:46.757Z,4.40
2022-08-08T00:14:59.356Z,3.67
2022-08-08T00:18:03.804Z,3.92
2022-08-08T00:20:44.428Z,4.13
2022-08-08T00:23:16.600Z,4.17
2022-08-08T00:25:51.151Z,4.40
2022-08-08T00:28:35.638Z,3.90
2022-08-08T00:32:14.916Z,3.92
2022-08-08T00:34:53.792Z,3.83
2022-08-08T00:37:47.692Z,3.90
2022-08-08T00:41:11.593Z,4.47
2022-08-08T00:43:46.141Z,4.18
2022-08-08T00:46:57.354Z,3.97
2022-08-08T00:49:58.765Z,3.88
2022-08-08T00:53:14.085Z,4.17
2022-08-08T00:56:16.595Z,4.22
2022-08-08T00:58:59.290Z,4.22
2022-08-08T01:01:37.706Z,4.13
2022-08-08T01:04:47.379Z,4.28
2022-08-08T01:07:34.427Z,3.80
2022-08-08T01:10:57.717Z,4.47
2022-08-08T01:13:43.297Z,4.28
2022-08-08T01:16:30.349Z,4.03
2022-08-08T01:19:52.445Z,4.05
2022-08-08T01:22:52.958Z,3.57
2022-08-08T01:25:58.471Z,4.00
2022-08-08T01:29:00.796Z,4.20
2022-08-08T01:32:14.659Z,4.00
2022-08-08T01:35:29.736Z,4.32
2022-08-08T01:38:38.065Z,3.80
2022-08-08T01:41:19.147Z,4.07
2022-08-08T01:44:10.802Z,4.13
2022-08-08T01:47:00.337Z,4.30
2022-08-08T01:49:53.593Z,4.20
2022-08-08T01:54:07.455Z,3.90
2022-08-08T01:56:27.196Z,3.78
2022-08-08T01:58:46.334Z,4.22
2022-08-08T02:02:05.247Z,4.05
2022-08-08T02:04:53.853Z,4.20
2022-08-08T02:08:05.049Z,4.07
2022-08-08T02:10:59.135Z,4.07
2022-08-08T02:13:53.652Z,4.07
2022-08-08T02:16:43.588Z,3.90
2022-08-08T02:19:56.994Z,3.80
2022-08-08T02:22:33.788Z,4.03
2022-08-08T02:25:23.206Z,3.60
2022-08-08T02:28:04.333Z,4.00
2022-08-08T02:31:04.677Z,4.57
2022-08-08T02:33:41.526Z,4.00
2022-08-08T02:36:51.615Z,4.00
2022-08-08T02:39:59.930Z,4.15
2022-08-08T02:42:41.935Z,4.35
2022-08-08T02:45:56.769Z,4.18
2022-08-08T02:48:56.491Z,4.43
2022-08-08T02:51:55.584Z,4.20
2022-08-08T02:54:52.766Z,4.38
2022-08-08T02:57:46.748Z,4.03
2022-08-08T03:00:50.697Z,4.45
2022-08-08T03:05:00.750Z,4.20
2022-08-08T03:07:13.392Z,4.40
2022-08-08T03:10:32.877Z,4.63
2022-08-08T03:15:57.494Z,4.30
2022-08-08T03:17:04.174Z,4.13
2022-08-08T03:20:10.375Z,4.30
2022-08-08T03:22:56.627Z,3.77
2022-08-08T03:25:34.051Z,3.90
2022-08-08T03:28:25.925Z,4.18
2022-08-08T03:31:22.215Z,4.20
2022-08-08T03:33:58.489Z,4.30
2022-08-08T03:36:30.102Z,4.10
2022-08-08T03:39:14.361Z,4.03
2022-08-08T03:42:26.868Z,4.13
2022-08-08T03:44:38.582Z,3.97
2022-08-08T03:47:19.561Z,3.80
2022-08-08T03:50:01.016Z,4.40
2022-08-08T03:52:36.763Z,4.43
2022-08-08T03:55:20.026Z,4.10
2022-08-08T03:58:34.782Z,4.43
2022-08-08T04:01:23.310Z,4.53
2022-08-08T04:04:00.272Z,4.23
2022-08-08T04:06:39.136Z,4.20
2022-08-08T04:09:11.202Z,4.75
2022-08-08T04:11:48.510Z,4.43
2022-08-08T04:14:33.880Z,4.82
2022-08-08T04:17:04.289Z,4.67
2022-08-08T04:19:36.637Z,5.25
2022-08-08T04:22:04.523Z,4.53
2022-08-08T04:24:36.841Z,4.10
2022-08-08T04:27:10.592Z,4.20
2022-08-08T04:30:00.991Z,4.00
2022-08-08T04:32:47.968Z,4.40
2022-08-08T04:35:18.380Z,4.40
2022-08-08T04:37:49.678Z,4.82
2022-08-08T04:40:24.217Z,5.70
2022-08-08T04:42:57.981Z,5.10
2022-08-08T04:45:33.504Z,5.13
2022-08-08T04:48:01.826Z,5.32
2022-08-08T04:50:37.844Z,5.20
2022-08-08T04:53:52.261Z,5.80
2022-08-08T04:55:56.288Z,5.37
2022-08-08T04:58:25.540Z,6.05
2022-08-08T05:00:52.962Z,5.68
2022-08-08T05:04:07.474Z,5.60
2022-08-08T05:06:13.235Z,7.10
2022-08-08T05:08:51.697Z,5.70
2022-08-08T05:11:23.943Z,6.78
2022-08-08T05:14:01.290Z,6.15
2022-08-08T05:16:50.968Z,6.10
2022-08-08T05:20:11.365Z,5.40
2022-08-08T05:22:10.219Z,6.00
2022-08-08T05:24:41.569Z,6.20
2022-08-08T05:27:16.055Z,5.72
2022-08-08T05:29:43.329Z,5.88
2022-08-08T05:32:12.696Z,5.63
2022-08-08T05:34:49.250Z,5.77
2022-08-08T05:37:28.351Z,5.53
2022-08-08T05:40:14.788Z,6.28
2022-08-08T05:42:49.568Z,5.57
2022-08-08T05:45:30.856Z,5.97
2022-08-08T05:48:08.800Z,6.00
2022-08-08T05:50:39.019Z,5.32
2022-08-08T05:53:22.958Z,5.93
2022-08-08T05:56:10.955Z,5.38
2022-08-08T05:58:57.514Z,6.80
2022-08-08T06:01:56.294Z,6.10
2022-08-08T06:04:22.688Z,6.65
2022-08-08T06:06:53.755Z,5.78
2022-08-08T06:09:59.038Z,6.80
2022-08-08T06:12:30.910Z,6.35
2022-08-08T06:15:02.765Z,6.27
2022-08-08T06:17:51.587Z,6.28
2022-08-08T06:20:25.951Z,5.65
2022-08-08T06:22:56.294Z,5.47
2022-08-08T06:26:36.157Z,5.25
2022-08-08T06:28:37.876Z,5.23
2022-08-08T06:31:09.821Z,4.30
2022-08-08T06:34:26.191Z,4.30
2022-08-08T06:36:53.246Z,4.45
2022-08-08T06:39:22.309Z,3.90
2022-08-08T06:41:53.038Z,3.33
2022-08-08T06:44:25.038Z,3.75
2022-08-08T06:46:56.980Z,3.60
2022-08-08T06:49:56.597Z,3.10
2022-08-08T06:52:12.095Z,3.00
2022-08-08T06:54:44.456Z,2.80
2022-08-08T06:57:16.105Z,3.17
2022-08-08T07:00:10.569Z,2.63
2022-08-08T07:02:34.157Z,2.60
2022-08-08T07:05:04.794Z,2.55
2022-08-08T07:07:43.414Z,3.57
2022-08-08T07:10:12.920Z,2.67
2022-08-08T07:12:47.749Z,2.92
2022-08-08T07:16:04.703Z,2.30
2022-08-08T07:18:40.607Z,2.70
2022-08-08T07:21:19.357Z,2.40
2022-08-08T07:24:05.916Z,2.40
2022-08-08T07:26:46.962Z,2.53
2022-08-08T07:29:41.390Z,2.72
2022-08-08T07:32:10.581Z,2.35
2022-08-08T07:34:59.331Z,2.30
2022-08-08T07:37:49.826Z,2.22
2022-08-08T07:40:28.929Z,2.72
2022-08-08T07:42:58.162Z,2.55
2022-08-08T07:45:34.605Z,3.10
2022-08-08T07:48:14.043Z,3.33
2022-08-08T07:50:41.835Z,3.08
2022-08-08T07:54:02.201Z,2.25
2022-08-08T07:56:44.076Z,2.50
2022-08-08T07:59:15.685Z,2.75
2022-08-08T08:02:36.323Z,2.60
2022-08-08T08:04:52.288Z,2.70
2022-08-08T08:07:25.928Z,2.45
2022-08-08T08:10:04.622Z,2.70
2022-08-08T08:12:41.433Z,2.70
2022-08-08T08:15:15.821Z,2.43
2022-08-08T08:17:49.026Z,2.08
2022-08-08T08:20:30.463Z,2.10
2022-08-08T08:23:00.988Z,2.40
2022-08-08T08:25:42.772Z,2.10
2022-08-08T08:28:17.107Z,1.97
2022-08-08T08:30:51.284Z,1.88
2022-08-08T08:33:21.084Z,1.63
2022-08-08T08:36:18.703Z,2.10
2022-08-08T08:38:49.536Z,2.28
2022-08-08T08:41:19.992Z,2.47
2022-08-08T08:43:50.667Z,1.80
2022-08-08T08:46:20.150Z,2.00
2022-08-08T08:48:54.994Z,1.80
2022-08-08T08:51:26.494Z,1.63
2022-08-08T08:54:01.662Z,1.70
2022-08-08T08:56:36.409Z,1.90
2022-08-08T08:59:22.086Z,1.73
2022-08-08T09:01:59.073Z,1.80
2022-08-08T09:04:38.595Z,2.00
2022-08-08T09:07:23.624Z,1.87
2022-08-08T09:09:55.330Z,1.92
2022-08-08T09:12:37.367Z,2.40
2022-08-08T09:15:06.449Z,1.83
2022-08-08T09:17:41.766Z,2.03
2022-08-08T09:21:57.056Z,2.37
2022-08-08T09:23:11.204Z,1.88
2022-08-08T09:26:00.660Z,2.20
2022-08-08T09:28:38.583Z,2.08
2022-08-08T09:31:16.801Z,2.10
2022-08-08T09:34:15.912Z,2.97
2022-08-08T09:37:28.618Z,2.13
2022-08-08T09:39:35.571Z,1.80
2022-08-08T09:42:20.241Z,1.83
2022-08-08T09:45:20.876Z,2.22
2022-08-08T09:48:15.962Z,1.93
2022-08-08T09:50:50.381Z,2.05
2022-08-08T09:53:24.864Z,1.75
2022-08-08T09:56:12.440Z,1.67
2022-08-08T09:59:20.103Z,1.50
2022-08-08T10:01:59.816Z,1.67
2022-08-08T10:04:38.576Z,1.75
2022-08-08T10:07:13.901Z,1.80
2022-08-08T10:10:00.860Z,1.90
2022-08-08T10:12:38.575Z,1.95
2022-08-08T10:15:21.858Z,1.67
2022-08-08T10:18:07.781Z,1.75
2022-08-08T10:20:57.752Z,1.88
2022-08-08T10:23:56.108Z,1.80
2022-08-08T10:26:52.085Z,1.75
2022-08-08T10:29:24.908Z,2.17
2022-08-08T10:32:16.414Z,2.20
2022-08-08T10:34:57.115Z,1.90
2022-08-08T10:37:34.576Z,2.13
2022-08-08T10:40:16.457Z,1.92
2022-08-08T10:42:47.027Z,2.00
2022-08-08T10:45:15.974Z,1.98
2022-08-08T10:47:50.332Z,2.35
2022-08-08T10:50:23.883Z,1.88
2022-08-08T10:52:51.395Z,2.28
2022-08-08T10:55:40.416Z,1.80
2022-08-08T10:58:10.006Z,1.77
2022-08-08T11:00:48.505Z,1.90
2022-08-08T11:03:52.353Z,1.70
2022-08-08T11:06:07.360Z,1.63
2022-08-08T11:08:53.257Z,1.50
2022-08-08T11:11:32.722Z,1.60
2022-08-08T11:14:12.312Z,1.50
2022-08-08T11:16:46.900Z,1.70
2022-08-08T11:19:15.659Z,1.38
2022-08-08T11:21:55.446Z,1.50
2022-08-08T11:24:25.948Z,1.42
2022-08-08T11:26:57.194Z,1.70
2022-08-08T11:29:41.627Z,1.50
2022-08-08T11:32:15.601Z,1.50
2022-08-08T11:35:23.541Z,1.73
2022-08-08T11:38:39.735Z,1.40
2022-08-08T11:40:27.059Z,1.50
2022-08-08T11:43:00.158Z,1.60
2022-08-08T11:45:27.806Z,1.50
2022-08-08T11:48:05.147Z,1.70
2022-08-08T11:50:34.016Z,1.50
2022-08-08T11:53:06.213Z,1.45
2022-08-08T11:55:36.403Z,1.60
2022-08-08T11:58:14.667Z,1.55
2022-08-08T12:00:53.740Z,1.30
2022-08-08T12:03:20.889Z,1.42
2022-08-08T12:05:48.952Z,1.65
2022-08-08T12:08:17.916Z,1.50
2022-08-08T12:10:50.126Z,1.60
2022-08-08T12:13:38.394Z,1.70
2022-08-08T12:16:15.764Z,1.42
2022-08-08T12:18:48.893Z,1.60
2022-08-08T12:22:00.317Z,1.77
2022-08-08T12:24:20.816Z,1.45
2022-08-08T12:26:57.160Z,1.30
2022-08-08T12:29:39.952Z,1.50
2022-08-08T12:32:16.993Z,1.45
2022-08-08T12:35:13.117Z,1.55
2022-08-08T12:38:01.208Z,1.55
2022-08-08T12:40:55.874Z,1.40
2022-08-08T12:43:47.684Z,1.60
2022-08-08T12:46:26.522Z,1.58
2022-08-08T12:49:25.047Z,1.50
2022-08-08T12:51:59.347Z,1.45
2022-08-08T12:54:38.261Z,1.50
2022-08-08T12:57:23.349Z,2.22
2022-08-08T13:00:03.499Z,1.40
2022-08-08T13:02:37.947Z,1.50
2022-08-08T13:05:26.617Z,1.70
2022-08-08T13:08:18.341Z,1.30
2022-08-08T13:11:04.228Z,1.50
2022-08-08T13:13:34.825Z,1.98
2022-08-08T13:16:18.998Z,1.92
2022-08-08T13:18:57.365Z,1.60
2022-08-08T13:21:49.068Z,1.70
2022-08-08T13:24:19.020Z,1.50
2022-08-08T13:27:11.734Z,1.40
2022-08-08T13:29:57.897Z,1.40
2022-08-08T13:32:27.068Z,1.50
2022-08-08T13:34:58.929Z,1.33
2022-08-08T13:37:51.634Z,1.40
2022-08-08T13:40:17.654Z,1.60
2022-08-08T13:42:54.700Z,1.50
2022-08-08T13:45:24.260Z,1.40
2022-08-08T13:48:02.884Z,1.50
2022-08-08T13:50:49.360Z,1.73
2022-08-08T13:53:34.179Z,1.70
2022-08-08T13:56:10.830Z,1.52
2022-08-08T13:58:57.572Z,1.65
2022-08-08T14:01:33.085Z,1.57
2022-08-08T14:04:24.328Z,1.60
2022-08-08T14:07:02.728Z,1.95
2022-08-08T14:10:04.755Z,1.40
2022-08-08T14:12:27.859Z,1.35
2022-08-08T14:14:55.157Z,1.60
2022-08-08T14:17:57.255Z,1.42
2022-08-08T14:20:15.554Z,1.40
2022-08-08T14:23:10.350Z,1.30
2022-08-08T14:25:55.310Z,1.83
2022-08-08T14:28:29.136Z,1.37
2022-08-08T14:31:10.351Z,1.50
2022-08-08T14:33:37.463Z,1.60
2022-08-08T14:36:06.841Z,1.60
2022-08-08T14:38:52.392Z,1.60
2022-08-08T14:41:53.489Z,1.57
2022-08-08T14:44:21.110Z,2.15
2022-08-08T14:47:01.077Z,1.60
2022-08-08T14:49:51.428Z,1.70
2022-08-08T14:52:21.802Z,1.75
2022-08-08T14:54:50.037Z,1.33
2022-08-08T14:57:17.183Z,1.60
2022-08-08T14:59:51.199Z,1.70
2022-08-08T15:02:25.703Z,1.40
2022-08-08T15:04:57.759Z,1.60
2022-08-08T15:07:40.406Z,1.60
2022-08-08T15:10:09.362Z,1.50
2022-08-08T15:12:37.324Z,1.70
2022-08-08T15:15:06.524Z,1.70
2022-08-08T15:17:33.538Z,1.90
2022-08-08T15:20:04.590Z,1.90
2022-08-08T15:22:31.661Z,1.40
2022-08-08T15:24:58.432Z,3.85
2022-08-08T15:28:03.548Z,2.03
2022-08-08T15:30:14.601Z,1.50
2022-08-08T15:32:43.178Z,1.50
2022-08-08T15:35:10.948Z,1.67
2022-08-08T15:37:39.123Z,1.70
2022-08-08T15:40:11.154Z,1.77
2022-08-08T15:42:41.734Z,1.88
2022-08-08T15:45:10.772Z,1.73
2022-08-08T15:47:37.622Z,2.65
2022-08-08T15:50:09.626Z,1.92
2022-08-08T15:52:46.661Z,1.60
2022-08-08T15:55:13.979Z,1.50
2022-08-08T15:57:40.776Z,1.80
2022-08-08T16:00:27.014Z,1.58
2022-08-08T16:02:55.902Z,1.50
2022-08-08T16:05:24.959Z,1.90
2022-08-08T16:08:02.411Z,1.48
2022-08-08T16:13:14.683Z,1.53
2022-08-08T16:13:30.596Z,1.60
2022-08-08T16:16:13.263Z,1.52
2022-08-08T16:18:56.205Z,2.97
2022-08-08T16:21:26.842Z,2.70
2022-08-08T16:23:55.599Z,1.80
2022-08-08T16:26:33.942Z,1.58
2022-08-08T16:29:08.976Z,2.55
2022-08-08T16:31:40.184Z,1.50
2022-08-08T16:34:07.229Z,1.40
2022-08-08T16:36:36.500Z,1.47
2022-08-08T16:39:09.962Z,1.70
2022-08-08T16:41:53.948Z,2.08
2022-08-08T16:44:33.338Z,1.58
2022-08-08T16:47:40.093Z,1.50
2022-08-08T16:50:13.737Z,1.70
2022-08-08T16:55:18.385Z,1.80
2022-08-08T16:55:54.482Z,2.05
2022-08-08T16:58:21.175Z,1.42
2022-08-08T17:00:53.092Z,1.70
2022-08-08T17:03:25.322Z,1.67
2022-08-08T17:06:35.462Z,1.67
2022-08-08T17:08:54.464Z,1.75
2022-08-08T17:11:21.224Z,1.20
2022-08-08T17:14:01.379Z,1.60
2022-08-08T17:16:29.165Z,1.60
2022-08-08T17:18:56.778Z,1.73
2022-08-08T17:21:26.119Z,2.08
2022-08-08T17:24:00.878Z,1.95
2022-08-08T17:26:29.970Z,1.92
2022-08-08T17:29:04.235Z,2.83
2022-08-08T17:31:43.509Z,2.08
2022-08-08T17:34:49.772Z,1.85
2022-08-08T17:37:03.914Z,2.22
2022-08-08T17:40:03.818Z,2.58
2022-08-08T17:42:21.086Z,1.87
2022-08-08T17:44:51.036Z,2.75
2022-08-08T17:47:24.350Z,2.90
2022-08-08T17:50:01.425Z,1.70
2022-08-08T17:52:34.244Z,2.78
2022-08-08T17:55:05.688Z,1.80
2022-08-08T17:57:49.394Z,2.20
2022-08-08T18:00:21.291Z,1.80
2022-08-08T18:03:02.175Z,2.00
2022-08-08T18:05:48.341Z,1.92
2022-08-08T18:08:38.311Z,1.97
2022-08-08T18:11:14.504Z,1.60
2022-08-08T18:13:44.419Z,1.67
2022-08-08T18:16:12.703Z,1.80
2022-08-08T18:18:45.524Z,1.90
2022-08-08T18:21:24.838Z,1.87
2022-08-08T18:24:02.670Z,1.55
2022-08-08T18:26:29.773Z,1.83
2022-08-08T18:28:57.722Z,1.85
2022-08-08T18:31:25.134Z,1.70
2022-08-08T18:34:25.093Z,1.60
2022-08-08T18:36:41.480Z,1.95
2022-08-08T18:39:16.579Z,1.40
2022-08-08T18:42:03.076Z,1.80
2022-08-08T18:44:33.121Z,2.13
2022-08-08T18:47:01.829Z,1.40
2022-08-08T18:49:32.588Z,1.60
2022-08-08T18:52:18.438Z,1.90
2022-08-08T18:55:00.732Z,1.60
2022-08-08T18:57:37.261Z,1.65
2022-08-08T19:00:15.986Z,1.67
2022-08-08T19:02:48.362Z,1.70
2022-08-08T19:05:23.711Z,1.60
2022-08-08T19:07:57.583Z,2.55
2022-08-08T19:10:24.650Z,2.00
2022-08-08T19:12:53.570Z,2.23
2022-08-08T19:15:21.691Z,2.67
2022-08-08T19:18:32.689Z,2.17
2022-08-08T19:20:39.646Z,1.98
2022-08-08T19:23:10.252Z,2.08
2022-08-08T19:26:20.402Z,1.97
2022-08-08T19:28:24.439Z,1.77
2022-08-08T19:31:04.038Z,1.98
2022-08-08T19:33:51.804Z,2.03
2022-08-08T19:36:25.231Z,2.10
2022-08-08T19:38:55.133Z,2.00
2022-08-08T19:41:22.038Z,2.22
2022-08-08T19:44:03.602Z,2.10
2022-08-08T19:46:33.675Z,1.80
2022-08-08T19:49:01.670Z,2.30
2022-08-08T19:51:34.572Z,2.20
2022-08-08T19:54:07.022Z,2.30
2022-08-08T19:56:40.215Z,2.28
2022-08-08T19:59:12.304Z,2.00
2022-08-08T20:02:02.246Z,2.30
2022-08-08T20:04:28.119Z,1.93
2022-08-08T20:06:56.748Z,2.45
2022-08-08T20:09:24.250Z,2.88
2022-08-08T20:11:52.180Z,2.60
2022-08-08T20:14:35.566Z,2.10
2022-08-08T20:17:04.285Z,2.57
2022-08-08T20:19:33.639Z,1.92
2022-08-08T20:22:03.222Z,2.10
2022-08-08T20:24:32.187Z,2.47
2022-08-08T20:26:59.017Z,2.22
2022-08-08T20:29:45.623Z,1.90
2022-08-08T20:32:14.346Z,1.90
2022-08-08T20:34:47.869Z,2.00
2022-08-08T20:37:20.571Z,2.25
2022-08-08T20:39:51.725Z,2.10
2022-08-08T20:42:28.398Z,2.07
2022-08-08T20:44:57.174Z,2.13
2022-08-08T20:47:25.961Z,1.92
2022-08-08T20:49:54.415Z,2.25
2022-08-08T20:52:26.358Z,2.90
2022-08-08T20:54:53.362Z,2.40
2022-08-08T20:57:21.120Z,2.10
2022-08-08T20:59:48.554Z,2.05
2022-08-08T21:02:25.384Z,2.05
2022-08-08T21:04:57.340Z,2.50
2022-08-08T21:07:47.940Z,2.13
2022-08-08T21:10:15.774Z,2.53
2022-08-08T21:12:44.587Z,2.15
2022-08-08T21:15:16.478Z,2.70
2022-08-08T21:18:00.368Z,2.47
2022-08-08T21:20:34.589Z,2.63
2022-08-08T21:23:02.849Z,2.10
2022-08-08T21:25:33.068Z,2.22
2022-08-08T21:28:13.383Z,2.00
2022-08-08T21:30:49.602Z,2.30
2022-08-08T21:33:16.981Z,2.20
2022-08-08T21:36:13.703Z,2.53
2022-08-08T21:38:31.062Z,2.50
2022-08-08T21:40:58.275Z,2.50
2022-08-08T21:43:33.459Z,2.45
2022-08-08T21:48:07.691Z,2.40
2022-08-08T21:48:54.665Z,2.50
2022-08-08T21:54:17.368Z,2.30
2022-08-08T21:54:35.828Z,2.50
2022-08-08T21:57:03.597Z,2.88
2022-08-08T22:00:01.903Z,2.50
2022-08-08T22:02:19.491Z,2.40
2022-08-08T22:04:50.486Z,2.63
2022-08-08T22:07:18.382Z,2.70
2022-08-08T22:09:45.909Z,2.70
2022-08-08T22:12:16.728Z,2.43
2022-08-08T22:14:44.373Z,2.58
2022-08-08T22:17:16.573Z,2.85
2022-08-08T22:20:13.189Z,2.50
2022-08-08T22:22:37.927Z,2.58
2022-08-08T22:25:17.683Z,2.63
2022-08-08T22:28:02.612Z,2.60
2022-08-08T22:30:39.499Z,2.55
2022-08-08T22:33:22.366Z,2.75
2022-08-08T22:36:05.065Z,2.78
2022-08-08T22:38:48.077Z,2.70
2022-08-08T22:41:21.458Z,2.83
2022-08-08T22:44:02.201Z,2.72
2022-08-08T22:46:34.114Z,3.00
2022-08-08T22:49:01.844Z,3.30
2022-08-08T22:51:29.555Z,3.10
2022-08-08T22:54:30.321Z,2.30
2022-08-08T22:56:50.332Z,3.10
2022-08-08T22:59:18.536Z,2.60
2022-08-08T23:02:03.686Z,2.67
2022-08-08T23:04:33.579Z,2.60
2022-08-08T23:07:02.863Z,2.80
2022-08-08T23:09:31.095Z,3.05
2022-08-08T23:12:28.534Z,3.10
2022-08-08T23:14:59.763Z,2.90
2022-08-08T23:17:46.875Z,2.80
2022-08-08T23:20:21.181Z,3.35
2022-08-08T23:22:55.108Z,3.00
2022-08-08T23:25:22.993Z,3.05
2022-08-08T23:27:49.765Z,3.10
2022-08-08T23:30:22.668Z,3.27
2022-08-08T23:32:51.123Z,2.67
2022-08-08T23:35:18.835Z,3.00
2022-08-08T23:38:01.612Z,3.10
2022-08-08T23:40:31.574Z,3.40
2022-08-08T23:42:58.612Z,2.80
2022-08-08T23:49:05.467Z,3.55
2022-08-08T23:49:05.982Z,2.92
2022-08-08T23:51:05.180Z,2.90
2022-08-08T23:54:05.341Z,3.20
2022-08-08T23:56:32.483Z,2.90
2022-08-08T23:59:02.206Z,3.22
